सभी
Hof Airport (Plauen Airfield) HOQ मौसम
|
Plauen Airfield (HOQ / EDQM)
स्वच्छ आकाश
हल्की हवाएं |
|
11 °C |
HOQ Terminal Area Forecast
| Date | Time (CEST) | Flight Rules | Wind Dir. | Speed | Type | Height AGL (ft) | Visibility | Remarks | ||||||
|---|---|---|---|---|---|---|---|---|---|---|---|---|---|---|
Recent HOQ METAR history
| Date | Time (CEST) | Flight Rules | Wind Dir. | Speed | Type | Height AGL (ft) | Visibility | Temp (°C) | Temp (°F) | Dew Point (°C) | Dew Point (°F) | Rel. Humid. | Pressure | Density Altitude | Remarks |
|---|---|---|---|---|---|---|---|---|---|---|---|---|---|---|---|
| 03-मई | 06:50 | VFR | 170° | 4 kt | 10000 meters | 11° | 51° | 2° | 35° | 54% | 1016 mb | 1,635 ft | |||
| 03-मई | 06:20 | VFR | 190° | 4 kt | 10000 meters | 10° | 50° | 0° | 32° | 50% | 1016 mb | 1,515 ft | |||
| 03-मई | 05:50 | VFR | 190° | 4 kt | 10000 meters | 9° | 48° | 1° | 33° | 57% | 1016 mb | 1,395 ft | |||
| 03-मई | 05:20 | VFR | 190° | 3 kt | 10000 meters | 10° | 50° | 1° | 33° | 53% | 1016 mb | 1,515 ft | |||
| 03-मई | 04:50 | VFR | 210° | 3 kt | 10000 meters | 10° | 50° | 1° | 33° | 53% | 1016 mb | 1,515 ft | |||
| 03-मई | 04:20 | VFR | 200° | 2 kt | 10000 meters | 11° | 51° | 0° | 32° | 47% | 1017 mb | 1,606 ft | |||
| 03-मई | 03:50 | VFR | 190° | 3 kt | 10000 meters |
10° | 50° | 1° | 33° | 53% | 1017 mb | 1,486 ft | |||
| 03-मई | 03:20 | MVFR | 210° | 3 kt | 7000 meters | 13° | 55° | 0° | 32° | 41% | 1017 mb | 1,846 ft | |||
| 03-मई | 02:50 | MVFR | 210° | 3 kt | 7000 meters |
12° | 53° | 0° | 32° | 44% | 1017 mb | 1,726 ft | |||
| 03-मई | 02:20 | VFR | 200° | 3 kt | 10000 meters |
13° | 55° | 0° | 32° | 41% | 1017 mb | 1,846 ft | |||
| 03-मई | 01:50 | MVFR | 210° | 3 kt | 7000 meters |
11° | 51° | 1° | 33° | 50% | 1017 mb | 1,606 ft | |||
| 03-मई | 01:20 | VFR | 210° | 2 kt | 10000 meters | 11° | 51° | 1° | 33° | 50% | 1017 mb | 1,606 ft | |||
| 03-मई | 00:50 | VFR | 210° | 2 kt | 10000 meters | 10° | 50° | 2° | 35° | 57% | 1017 mb | 1,486 ft | |||
| 03-मई | 00:20 | VFR | 140° | 2 kt | 10000 meters |
11° | 51° | 2° | 35° | 54% | 1018 mb | 1,576 ft | |||
| 02-मई | 23:50 | MVFR | 200° | 2 kt | 8000 meters | 13° | 55° | 0° | 32° | 41% | 1018 mb | 1,816 ft | |||
| 02-मई | 23:20 | MVFR | Calm | 8000 meters |
13° | 55° | 0° | 32° | 41% | 1018 mb | 1,816 ft | ||||
| 02-मई | 22:50 | VFR | 210° | 2 kt | 10000 meters | 16° | 60° | -1° | 30° | 31% | 1018 mb | 2,176 ft | |||
| 02-मई | 22:20 | VFR | 230° | 2 kt | 10000 meters | 17° | 62° | 0° | 32° | 32% | 1018 mb | 2,296 ft | |||
| 02-मई | 21:50 | VFR | 220° | 2 kt | 10000 meters | 17° | 62° | 0° | 32° | 32% | 1018 mb | 2,296 ft | |||
| 02-मई | 21:20 | VFR | Calm | 10000 meters | 14° | 57° | 4° | 39° | 51% | 1018 mb | 1,936 ft | ||||
| 02-मई | 20:50 | VFR | Variable | 2 kt | 10000 meters | 17° | 62° | 2° | 35° | 36% | 1018 mb | 2,296 ft | |||
| 02-मई | 20:20 | VFR | 190° | 2 kt | 10000 meters | 18° | 64° | 1° | 33° | 32% | 1018 mb | 2,416 ft | |||
| 02-मई | 19:50 | VFR | 220° | 4 kt | 10000 meters | 19° | 66° | 2° | 35° | 32% | 1018 mb | 2,536 ft | |||
| 02-मई | 19:20 | VFR | 190° | 5 kt | 10000 meters | 20° | 68° | 2° | 35° | 30% | 1018 mb | 2,656 ft |
लॉगिन
| Your browser is unsupported. अपना ब्राऊजर अपग्रेड करें |
